»·PEaware :: DCM205 KMRY-KSBP

DCM205 :: KMRY-KSBP

FLIGHT INFORMATION

Flight Status: Arrived
Operator:
DotCom
More flights by this operator :: More flights under this callsign
Pilot: Chris S. (2433)
Aircraft: AIRBUS A320
(A320)
More flights by this aircraft type
Origin: KMRY Monterey Peninsula
United States
Destination: KSBP San Luis Co Regl
United States
More flights between these airports :: More routes between these airports
Route: +MRY5 SHOEY DUBSS T257 MQO
File this flight plan on PilotEdge
Remarks:
Altitude:
(Current/Filed)
15,000ft
Speed:
(Current/Filed)
450kts
Departed: 05-Jun-20 04:47 PM
Arrived: 05-Jun-20 05:25 PM
Distance/Time
Traveled:
100nm/0:37
Distance/Time
To Go:
Arrived

Flight Plot

Page will automatically refresh every two minutes.

Flight plan parsing failed; only flown route is shown


Map Options




Map Legend


Flown Route
Filed Route
Departure Airport
Arrival Airport
Navaid (VOR, NDB)
Fix

Horizontal Profiles

Position Reports

Time Latitude Longitude Heading Altitude Ground
Speed
05-Jun-20 16:24 36.587633 -121.849959 238 219ft 0kts
05-Jun-20 16:25 36.587633 -121.849959 238 219ft 0kts
05-Jun-20 16:26 36.587633 -121.849959 238 219ft 0kts
05-Jun-20 16:27 36.587633 -121.849959 238 219ft 0kts
05-Jun-20 16:28 36.587633 -121.849959 238 219ft 0kts
05-Jun-20 16:29 36.587633 -121.849959 238 219ft 0kts
05-Jun-20 16:30 36.587633 -121.849959 238 219ft 0kts
05-Jun-20 16:31 36.587633 -121.849959 238 219ft 0kts
05-Jun-20 16:32 36.587633 -121.849959 238 219ft 0kts
05-Jun-20 16:33 36.587633 -121.849959 238 219ft 0kts
05-Jun-20 16:34 36.587633 -121.849959 238 219ft 0kts
05-Jun-20 16:35 36.587632 -121.849960 238 219ft 0kts
05-Jun-20 16:36 36.587630 -121.849965 238 219ft 0kts
05-Jun-20 16:42 36.587062 -121.846971 113 219ft 14kts
05-Jun-20 16:43 36.584668 -121.840364 112 219ft 26kts
05-Jun-20 16:44 36.582908 -121.834959 101 219ft 0kts
05-Jun-20 16:45 36.583677 -121.834608 291 219ft 9kts
05-Jun-20 16:46 36.595685 -121.872264 285 1375ft 171kts
05-Jun-20 16:47 36.642186 -121.901000 340 3415ft 231kts
05-Jun-20 16:48 36.708691 -121.928967 332 6235ft 260kts
05-Jun-20 16:49 36.733399 -122.009723 276 8451ft 272kts
05-Jun-20 16:50 36.743042 -122.106446 277 10761ft 305kts
05-Jun-20 16:52 36.754961 -122.222837 276 11875ft 369kts
05-Jun-20 16:53 36.769043 -122.349916 276 13998ft 332kts
05-Jun-20 16:54 36.775807 -122.457159 252 14969ft 304kts
05-Jun-20 16:55 36.710320 -122.510356 174 14975ft 311kts
05-Jun-20 16:56 36.645641 -122.437539 121 15005ft 362kts
05-Jun-20 16:57 36.590941 -122.327260 124 14984ft 378kts
05-Jun-20 16:58 36.533988 -122.216993 123 15005ft 388kts
05-Jun-20 16:59 36.471387 -122.095619 123 15002ft 434kts
05-Jun-20 17:00 36.406016 -121.969357 123 14995ft 433kts
05-Jun-20 17:01 36.340536 -121.843232 123 14998ft 434kts
05-Jun-20 17:02 36.256767 -121.741080 155 14999ft 431kts
05-Jun-20 17:03 36.149182 -121.676351 153 14989ft 431kts
05-Jun-20 17:04 36.041755 -121.609288 154 15023ft 431kts
05-Jun-20 17:05 35.934639 -121.543032 153 15034ft 432kts
05-Jun-20 17:06 35.826849 -121.476632 153 15029ft 433kts
05-Jun-20 17:07 35.718705 -121.410055 153 15020ft 434kts
05-Jun-20 17:08 35.615654 -121.335216 131 14473ft 432kts
05-Jun-20 17:08 35.555449 -121.237279 126 13656ft 428kts
05-Jun-20 17:10 35.470702 -121.104240 127 12492ft 422kts
05-Jun-20 17:11 35.396071 -120.994052 132 11491ft 419kts
05-Jun-20 17:11 35.332313 -120.910306 132 10645ft 380kts
05-Jun-20 17:13 35.254194 -120.809460 132 9463ft 317kts
05-Jun-20 17:14 35.195189 -120.734339 132 8465ft 302kts
05-Jun-20 17:14 35.150276 -120.670009 123 7428ft 296kts
05-Jun-20 17:15 35.105416 -120.588973 122 5495ft 282kts
05-Jun-20 17:16 35.064722 -120.511806 122 4088ft 246kts
05-Jun-20 17:17 35.059061 -120.446128 41 4018ft 199kts
05-Jun-20 17:18 35.109898 -120.436161 349 3938ft 190kts
05-Jun-20 17:19 35.144052 -120.477750 301 3190ft 173kts
05-Jun-20 17:20 35.168056 -120.519594 301 2734ft 136kts
05-Jun-20 17:21 35.189778 -120.557476 302 2011ft 137kts
05-Jun-20 17:22 35.211360 -120.595103 304 1177ft 132kts
05-Jun-20 17:23 35.232492 -120.632491 304 305ft 128kts
05-Jun-20 17:24 35.241431 -120.646840 59 226ft 9kts
05-Jun-20 17:25 35.238797 -120.641695 124 226ft 23kts

Navigation Log

Ident Type
Flight plan parsing failed, navigation log unavailable